createdAt,value
2019-03-30T00:00:39.739Z,44.57
2019-03-30T00:05:47.206Z,44.47
2019-03-30T00:10:54.298Z,45.30
2019-03-30T00:16:00.372Z,44.57
2019-03-30T00:21:07.223Z,44.03
2019-03-30T00:26:16.446Z,45.70
2019-03-30T00:31:23.300Z,45.37
2019-03-30T00:36:29.790Z,43.13
2019-03-30T00:41:36.771Z,44.63
2019-03-30T00:46:44.384Z,43.80
2019-03-30T00:51:52.322Z,45.47
2019-03-30T00:56:59.500Z,45.23
2019-03-30T01:02:05.486Z,44.20
2019-03-30T01:07:12.360Z,46.00
2019-03-30T01:12:19.251Z,47.10
2019-03-30T01:17:26.532Z,47.93
2019-03-30T01:22:32.939Z,39.90
2019-03-30T01:27:52.694Z,42.20
2019-03-30T01:32:59.472Z,45.60
2019-03-30T01:38:07.450Z,43.93
2019-03-30T01:43:14.432Z,43.07
2019-03-30T01:48:20.921Z,46.37
2019-03-30T01:53:28.039Z,42.23
2019-03-30T01:58:35.841Z,42.13
2019-03-30T02:03:42.523Z,49.73
2019-03-30T02:08:49.621Z,49.13
2019-03-30T02:13:56.106Z,44.47
2019-03-30T02:19:04.442Z,48.37
2019-03-30T02:24:11.374Z,45.97
2019-03-30T02:29:17.411Z,48.27
2019-03-30T02:34:25.709Z,42.27
2019-03-30T02:39:31.809Z,41.33
2019-03-30T02:44:38.698Z,40.33
2019-03-30T02:49:45.804Z,44.60
2019-03-30T02:54:53.754Z,39.83
2019-03-30T03:00:00.860Z,44.13
2019-03-30T03:05:09.943Z,42.57
2019-03-30T03:10:16.844Z,45.47
2019-03-30T03:15:23.968Z,38.40
2019-03-30T03:20:29.914Z,39.47
2019-03-30T03:25:35.882Z,38.47
2019-03-30T03:30:42.988Z,36.50
2019-03-30T03:35:49.487Z,37.37
2019-03-30T03:40:57.700Z,38.57
2019-03-30T03:46:05.746Z,37.90
2019-03-30T03:51:25.839Z,45.53
2019-03-30T03:56:45.847Z,39.13
2019-03-30T04:02:14.960Z,37.43
2019-03-30T04:07:26.331Z,36.70
2019-03-30T04:12:36.723Z,36.43
2019-03-30T04:17:43.376Z,34.43
2019-03-30T04:22:50.409Z,37.10
2019-03-30T04:27:58.395Z,34.87
2019-03-30T04:33:04.397Z,34.07
2019-03-30T04:38:14.295Z,36.83
2019-03-30T04:43:20.685Z,33.37
2019-03-30T04:48:29.535Z,35.50
2019-03-30T04:53:36.239Z,33.60
2019-03-30T04:58:42.118Z,44.07
2019-03-30T05:03:49.013Z,33.87
2019-03-30T05:08:56.875Z,35.13
2019-03-30T05:14:05.155Z,34.83
2019-03-30T05:24:38.045Z,32.93
2019-03-30T05:29:45.268Z,33.33
2019-03-30T05:34:53.983Z,32.47
2019-03-30T05:40:00.778Z,32.83
2019-03-30T05:45:28.573Z,29.07
2019-03-30T05:50:36.005Z,31.67
2019-03-30T05:55:42.800Z,28.70
2019-03-30T06:00:49.588Z,31.73
2019-03-30T06:05:57.633Z,30.87
2019-03-30T06:11:04.093Z,28.63
2019-03-30T06:16:09.957Z,29.50
2019-03-30T06:21:16.768Z,28.40
2019-03-30T06:26:23.946Z,27.43
2019-03-30T06:31:29.915Z,31.77
2019-03-30T06:36:36.726Z,26.30
2019-03-30T06:41:55.392Z,26.07
2019-03-30T06:47:01.765Z,29.50
2019-03-30T06:52:07.782Z,27.03
2019-03-30T06:57:15.666Z,28.47
2019-03-30T07:02:21.690Z,23.53
2019-03-30T07:07:29.140Z,22.30
2019-03-30T07:12:58.861Z,24.43
2019-03-30T07:18:05.904Z,23.87
2019-03-30T07:23:13.108Z,22.07
2019-03-30T07:28:19.584Z,25.73
2019-03-30T07:33:26.565Z,23.47
2019-03-30T07:38:32.475Z,21.90
2019-03-30T07:43:39.267Z,23.83
2019-03-30T07:48:45.105Z,21.60
2019-03-30T07:53:51.875Z,22.10
2019-03-30T07:58:58.514Z,23.10
2019-03-30T08:04:28.636Z,21.07
2019-03-30T08:09:37.230Z,23.50
2019-03-30T08:14:45.333Z,23.67
2019-03-30T08:19:52.283Z,24.43
2019-03-30T08:24:58.221Z,26.90
2019-03-30T08:30:06.169Z,24.17
2019-03-30T08:35:12.374Z,24.00
2019-03-30T08:40:18.836Z,23.07
2019-03-30T08:45:26.936Z,23.73
2019-03-30T08:50:32.924Z,20.63
2019-03-30T08:56:27.765Z,22.77
2019-03-30T09:01:31.960Z,21.77
2019-03-30T09:06:37.932Z,19.03
2019-03-30T09:11:43.926Z,20.27
2019-03-30T09:16:50.855Z,21.73
2019-03-30T09:21:57.773Z,19.87
2019-03-30T09:27:03.711Z,19.77
2019-03-30T09:32:14.564Z,20.27
2019-03-30T09:37:17.708Z,19.63
2019-03-30T09:42:24.463Z,17.07
2019-03-30T09:47:30.390Z,21.47
2019-03-30T09:52:36.367Z,18.87
2019-03-30T09:57:42.758Z,19.60
2019-03-30T10:02:48.619Z,19.60
2019-03-30T10:07:55.535Z,22.90
2019-03-30T10:13:01.423Z,21.47
2019-03-30T10:18:08.327Z,18.30
2019-03-30T10:23:14.774Z,19.20
2019-03-30T10:28:21.316Z,23.30
2019-03-30T10:33:29.201Z,18.80
2019-03-30T10:38:35.159Z,22.60
2019-03-30T10:43:41.941Z,18.17
2019-03-30T10:48:48.846Z,16.60
2019-03-30T10:53:55.641Z,14.73
2019-03-30T10:59:02.049Z,16.03
2019-03-30T11:04:07.949Z,18.50
2019-03-30T11:09:13.850Z,17.47
2019-03-30T11:14:20.460Z,20.10
2019-03-30T11:19:26.379Z,21.80
2019-03-30T11:24:32.311Z,17.97
2019-03-30T11:29:40.333Z,17.73
2019-03-30T11:34:47.420Z,16.77
2019-03-30T11:39:54.441Z,16.73
2019-03-30T11:45:01.366Z,19.60
2019-03-30T11:50:08.662Z,19.80
2019-03-30T11:55:22.088Z,17.53
2019-03-30T12:00:23.485Z,15.60
2019-03-30T12:05:30.028Z,15.97
2019-03-30T12:10:36.026Z,18.47
2019-03-30T12:15:42.934Z,18.67
2019-03-30T12:20:50.035Z,18.50
2019-03-30T12:25:56.066Z,17.23
2019-03-30T12:31:02.850Z,16.73
2019-03-30T12:36:08.815Z,15.87
2019-03-30T12:41:15.224Z,17.00
2019-03-30T12:46:21.371Z,15.93
2019-03-30T12:51:27.336Z,18.60
2019-03-30T12:56:33.363Z,20.30
2019-03-30T13:01:39.440Z,17.43
2019-03-30T13:06:45.997Z,18.13
2019-03-30T13:11:52.901Z,18.07
2019-03-30T13:16:58.949Z,17.53
2019-03-30T13:22:05.016Z,16.50
2019-03-30T13:27:13.127Z,17.67
2019-03-30T13:32:20.055Z,18.30
2019-03-30T13:37:26.692Z,17.53
2019-03-30T13:42:32.709Z,19.37
2019-03-30T13:47:38.704Z,16.07
2019-03-30T13:52:45.699Z,17.10
2019-03-30T13:57:52.452Z,16.00
2019-03-30T14:02:58.417Z,16.30
2019-03-30T14:08:05.234Z,17.30
2019-03-30T14:13:13.745Z,17.77
2019-03-30T14:18:20.509Z,23.43
2019-03-30T14:23:28.361Z,16.97
2019-03-30T14:28:34.339Z,21.10
2019-03-30T14:33:40.773Z,18.53
2019-03-30T14:38:47.310Z,21.13
2019-03-30T14:43:54.103Z,19.70
2019-03-30T14:49:00.895Z,21.00
2019-03-30T14:54:07.888Z,21.70
2019-03-30T14:59:14.743Z,19.50
2019-03-30T15:04:22.415Z,20.93
2019-03-30T15:09:31.955Z,21.77
2019-03-30T15:14:38.043Z,20.40
2019-03-30T15:19:45.030Z,20.33
2019-03-30T15:24:52.128Z,22.23
2019-03-30T15:30:00.351Z,24.47
2019-03-30T15:35:08.197Z,22.90
2019-03-30T15:40:15.155Z,26.77
2019-03-30T15:45:21.134Z,23.03
2019-03-30T15:50:27.139Z,23.83
2019-03-30T15:55:33.128Z,25.37
2019-03-30T16:00:39.939Z,26.67
2019-03-30T16:05:46.748Z,24.83
2019-03-30T16:10:54.605Z,26.00
2019-03-30T16:16:03.328Z,21.83
2019-03-30T16:21:10.522Z,19.60
2019-03-30T16:26:16.883Z,18.73
2019-03-30T16:31:24.187Z,21.90
2019-03-30T16:36:32.584Z,20.43
2019-03-30T16:41:42.695Z,19.53
2019-03-30T16:46:50.312Z,19.27
2019-03-30T16:51:58.208Z,18.90
2019-03-30T16:57:05.112Z,22.80
2019-03-30T17:02:11.901Z,21.23
2019-03-30T17:07:18.994Z,21.97
2019-03-30T17:12:26.091Z,23.50
2019-03-30T17:17:33.321Z,23.63
2019-03-30T17:22:39.877Z,21.57
2019-03-30T17:27:57.349Z,22.20
2019-03-30T17:32:56.240Z,37.47
2019-03-30T17:38:02.309Z,40.07
2019-03-30T17:43:09.001Z,60.90
2019-03-30T17:48:18.148Z,104.20
2019-03-30T17:53:27.286Z,56.13
2019-03-30T17:58:35.085Z,32.20
2019-03-30T18:03:42.617Z,28.53
2019-03-30T18:08:49.369Z,33.83
2019-03-30T18:13:56.939Z,32.13
2019-03-30T18:19:04.915Z,25.27
2019-03-30T18:24:11.095Z,22.40
2019-03-30T18:29:20.075Z,23.97
2019-03-30T18:34:29.206Z,25.00
2019-03-30T18:39:36.578Z,23.90
2019-03-30T18:44:44.294Z,28.00
2019-03-30T18:49:55.697Z,26.37
2019-03-30T18:55:02.726Z,33.50
2019-03-30T19:00:16.738Z,28.93
2019-03-30T19:05:25.686Z,34.60
2019-03-30T19:10:34.640Z,39.47
2019-03-30T19:15:43.902Z,42.87
2019-03-30T19:20:50.847Z,39.70
2019-03-30T19:25:59.574Z,42.40
2019-03-30T19:31:08.087Z,41.90
2019-03-30T19:36:15.743Z,48.27
2019-03-30T19:41:23.151Z,47.30
2019-03-30T19:46:30.773Z,54.03
2019-03-30T19:51:41.040Z,55.07
2019-03-30T19:56:47.017Z,60.20
2019-03-30T20:01:56.703Z,53.67
2019-03-30T20:07:05.831Z,54.00
2019-03-30T20:12:14.527Z,57.47
2019-03-30T20:17:23.305Z,53.13
2019-03-30T20:22:29.375Z,53.10
2019-03-30T20:27:40.871Z,69.73
2019-03-30T20:32:47.667Z,133.93
2019-03-30T20:37:57.271Z,77.93
2019-03-30T20:43:23.564Z,62.17
2019-03-30T20:48:32.883Z,64.17
2019-03-30T20:53:39.505Z,63.60
2019-03-30T20:58:48.045Z,58.33
2019-03-30T21:03:56.261Z,56.80
2019-03-30T21:09:07.052Z,55.63
2019-03-30T21:14:14.474Z,56.70
2019-03-30T21:19:20.634Z,60.50
2019-03-30T21:24:27.612Z,49.87
2019-03-30T21:29:35.962Z,52.23
2019-03-30T21:34:44.079Z,66.93
2019-03-30T21:39:53.519Z,66.47
2019-03-30T21:45:00.148Z,56.10
2019-03-30T21:50:09.566Z,48.80
2019-03-30T21:55:16.217Z,51.60
2019-03-30T22:00:40.625Z,49.67
2019-03-30T22:05:49.596Z,48.70
2019-03-30T22:10:56.478Z,52.40
2019-03-30T22:16:03.285Z,51.20
2019-03-30T22:21:10.170Z,52.23
2019-03-30T22:26:16.145Z,59.70
2019-03-30T22:31:22.219Z,49.60
2019-03-30T22:36:29.212Z,51.47
2019-03-30T22:41:36.314Z,45.67
2019-03-30T23:09:21.240Z,56.97
2019-03-30T23:14:27.213Z,60.43
2019-03-30T23:19:33.282Z,53.40
2019-03-30T23:24:42.181Z,51.83
2019-03-30T23:29:51.686Z,52.40
2019-03-30T23:34:59.773Z,53.37
2019-03-30T23:40:08.631Z,50.10
2019-03-30T23:45:15.634Z,45.07
2019-03-30T23:50:21.711Z,42.30
2019-03-30T23:55:29.312Z,42.67
